TO4678 / F-GZHZ 7700 Squawk Report (26th of May, 2019)

Aircraft B738 Reg No. F-GZHZ Age 13 years old
Model 737 Jet engines 2 First flight 09-02-06
Registered 10-07-18 Rollout 01-02-06 Delivered 23-02-06
Construction No. 33977 Line No. 1878 Series 85P
ADSHEX 3964F9 Airline name Transavia France Owner N/A
Airfield based Paris-Orly~Essonne~F First tracked 2018-07-31 04:10:00

Flight history for F-GZHZ

Route Flight No Date Playback
Lisbon (LIS) - Saint Exupery (LYS) TO4839 2019-06-26 21:54:00
Saint Exupery (LYS) - Lisbon (LIS) TO4838 2019-06-26 18:37:00
Faro (FAO) - Saint Exupery (LYS) TO4831 2019-06-26 16:22:00
Saint Exupery (LYS) - Faro (FAO) TO4830 2019-06-26 10:34:00
Angads (OUD) - Saint Exupery (LYS) TO4879 2019-06-26 08:02:00
???? N/A 2019-06-25 18:59:00
Madeira (FNC) - Porto (OPO) - Saint Exupery (LYS) TO4851 2019-06-25 15:51:00
Saint Exupery (LYS) - Porto (OPO) - Madeira (FNC) TO4850 2019-06-25 10:18:00
Porto (OPO) - Saint Exupery (LYS) TO4845 2019-06-25 04:44:00
Saint Exupery (LYS) - Porto (OPO) TO4844 2019-06-24 19:59:00
Palermo (PMO) - Saint Exupery (LYS) TO4925 2019-06-24 16:54:00
Saint Exupery (LYS) - Palermo (PMO) TO4924 2019-06-24 12:40:00
Carthage (TUN) - Saint Exupery (LYS) TO4991 2019-06-24 09:15:00
Saint Exupery (LYS) - Carthage (TUN) TO4990 2019-06-24 07:43:00
Houari Boumediene (ALG) - Saint Exupery (LYS) TO4801 2019-06-24 04:42:00
Saint Exupery (LYS) - Houari Boumediene (ALG) TO4800 2019-06-23 20:40:00
Sevilla (SVQ) - Saint Exupery (LYS) TO4907 2019-06-23 17:25:00
Saint Exupery (LYS) - Sevilla (SVQ) TO4906 2019-06-23 13:52:00
Zarzis (DJE) - Saint Exupery (LYS) TO4933 2019-06-23 11:05:00
Saint Exupery (LYS) - Zarzis (DJE) TO4932 2019-06-23 06:15:00
Time Lat Lon Altitude Heading Speed Vertical Rate
2019-05-26 17:34:08 GMT 47.171150 -1.597102 150 208 156 -832
2019-05-26 17:34:00 GMT 47.175842 -1.593155 250 213 154 -896
2019-05-26 17:33:51 GMT 47.181610 -1.587318 400 218 154 -832
2019-05-26 17:33:43 GMT 47.186005 -1.581963 525 221 154 -832
2019-05-26 17:33:40 GMT 47.187256 -1.580341 550 220 154 -896
2019-05-26 17:33:29 GMT 47.193027 -1.573228 725 221 154 -1024
2019-05-26 17:33:23 GMT 47.197544 -1.567665 825 220 154 -832
2019-05-26 17:33:20 GMT 47.198364 -1.566650 850 220 154 -896
2019-05-26 17:33:09 GMT 47.204086 -1.559715 1,000 220 154 -768
2019-05-26 17:32:59 GMT 47.209648 -1.552734 1,150 222 154 -896
2019-05-26 17:32:48 GMT 47.215420 -1.545410 1,300 220 156 -832
2019-05-26 17:32:38 GMT 47.221069 -1.538498 1,500 221 157 -896
2019-05-26 17:32:28 GMT 47.226700 -1.531425 1,600 221 158 -832
2019-05-26 17:32:21 GMT 47.231712 -1.525198 1,725 219 160 -832
2019-05-26 17:32:18 GMT 47.232273 -1.524494 1,725 220 159 -896
2019-05-26 17:32:08 GMT 47.238277 -1.517381 1,900 219 160 -832
2019-05-26 17:31:58 GMT 47.244232 -1.510208 2,025 220 161 -768
2019-05-26 17:31:47 GMT 47.250046 -1.503067 2,175 220 161 -768
2019-05-26 17:31:38 GMT 47.255997 -1.495720 2,325 220 169 -832
2019-05-26 17:31:27 GMT 47.262390 -1.487943 2,475 221 175 -896
2019-05-26 17:31:16 GMT 47.270233 -1.478073 2,675 221 178 -1024
2019-05-26 17:31:04 GMT 47.277008 -1.469559 2,775 221 176 -640
2019-05-26 17:30:55 GMT 47.282455 -1.462830 2,850 220 173 0
2019-05-26 17:30:45 GMT 47.289394 -1.454350 2,850 220 173 -64
2019-05-26 17:30:36 GMT 47.295864 -1.446252 2,850 222 172 0
2019-05-26 17:30:26 GMT 47.300171 -1.440651 2,850 222 172 0
2019-05-26 17:30:23 GMT 47.302048 -1.438179 2,850 220 176 0
2019-05-26 17:30:16 GMT 47.306522 -1.432800 2,825 219 179 0
2019-05-26 17:30:13 GMT 47.308777 -1.430077 2,850 219 184 -64
2019-05-26 17:30:05 GMT 47.313553 -1.424490 2,850 219 188 -128
2019-05-26 17:29:59 GMT 47.317932 -1.419296 2,900 219 190 -768
2019-05-26 17:29:55 GMT 47.320358 -1.416481 2,950 218 191 -960
2019-05-26 17:29:50 GMT 47.323700 -1.412636 3,025 219 192 -64
2019-05-26 17:29:44 GMT 47.327682 -1.408035 3,050 219 193 -384
2019-05-26 17:29:39 GMT 47.331757 -1.403151 3,100 220 194 -704
2019-05-26 17:29:33 GMT 47.335106 -1.398855 3,150 223 196 -448
2019-05-26 17:29:27 GMT 47.339668 -1.392376 3,200 226 197 -256
2019-05-26 17:29:24 GMT 47.341553 -1.389496 3,200 228 200 0
2019-05-26 17:29:14 GMT 47.347458 -1.379402 3,250 232 205 -512
2019-05-26 17:29:07 GMT 47.351578 -1.372055 3,275 230 209 0
2019-05-26 17:29:03 GMT 47.353958 -1.368080 3,275 227 212 -128
2019-05-26 17:28:57 GMT 47.358810 -1.360794 3,325 225 213 -512
2019-05-26 17:28:54 GMT 47.361237 -1.357292 3,350 226 212 -512
2019-05-26 17:28:43 GMT 47.368252 -1.346811 3,425 227 213 -320
2019-05-26 17:28:35 GMT 47.373917 -1.337997 3,475 228 215 -384
2019-05-26 17:28:32 GMT 47.375656 -1.335182 3,475 228 215 -384
2019-05-26 17:28:21 GMT 47.383011 -1.323360 3,575 228 216 -192
2019-05-26 17:28:15 GMT 47.387650 -1.315819 3,600 228 217 -576
2019-05-26 17:28:12 GMT 47.389023 -1.313622 3,625 228 217 -576
2019-05-26 17:28:05 GMT 47.395981 -1.302841 3,725 226 217 -1088
2019-05-26 17:27:55 GMT 47.402470 -1.293429 3,850 225 215 -256
2019-05-26 17:27:52 GMT 47.403534 -1.291855 3,850 225 216 -64
2019-05-26 17:27:42 GMT 47.410660 -1.281245 3,850 227 217 64
2019-05-26 17:27:31 GMT 47.417496 -1.270088 3,850 230 219 0
2019-05-26 17:27:21 GMT 47.424114 -1.258568 3,850 230 222 -64
2019-05-26 17:27:10 GMT 47.432308 -1.244695 3,850 229 226 0
2019-05-26 17:27:01 GMT 47.438408 -1.234765 3,850 227 229 0
2019-05-26 17:26:48 GMT 47.448044 -1.220116 3,850 226 231 0
2019-05-26 17:26:41 GMT 47.453522 -1.211929 3,850 226 231 64
2019-05-26 17:26:31 GMT 47.460617 -1.201286 3,850 226 233 -64
2019-05-26 17:26:28 GMT 47.464279 -1.195656 3,850 229 232 -128
2019-05-26 17:26:20 GMT 47.468849 -1.188143 3,875 229 232 64
2019-05-26 17:26:17 GMT 47.471737 -1.183354 3,850 229 233 0
2019-05-26 17:26:09 GMT 47.476627 -1.175326 3,850 229 233 -128
2019-05-26 17:26:06 GMT 47.479233 -1.171030 3,900 223 233 -256
2019-05-26 17:26:00 GMT 47.483887 -1.164551 3,900 218 233 -192
2019-05-26 17:25:54 GMT 47.488544 -1.159762 3,925 209 233 -128
2019-05-26 17:25:48 GMT 47.494827 -1.154903 3,925 207 233 256
2019-05-26 17:25:43 GMT 47.499668 -1.151381 3,925 205 232 192
2019-05-26 17:25:38 GMT 47.503765 -1.148705 3,900 204 232 256
2019-05-26 17:25:28 GMT 47.513542 -1.142367 3,875 212 230 0
2019-05-26 17:25:15 GMT 47.523239 -1.125549 3,850 288 221 0
2019-05-26 17:25:12 GMT 47.523735 -1.120605 3,850 277 222 0
2019-05-26 17:25:07 GMT 47.523651 -1.116211 3,850 288 221 0
2019-05-26 17:25:00 GMT 47.520767 -1.103233 3,850 298 220 0
2019-05-26 17:24:57 GMT 47.520126 -1.101723 3,850 306 218 64
2019-05-26 17:24:50 GMT 47.514496 -1.091835 3,850 318 219 0
2019-05-26 17:24:47 GMT 47.513443 -1.090462 3,850 321 219 0
2019-05-26 17:24:37 GMT 47.504974 -1.082435 3,850 337 224 0
2019-05-26 17:24:26 GMT 47.493710 -1.078562 3,900 359 230 -704
2019-05-26 17:24:14 GMT 47.479698 -1.082787 4,150 24 234 -1024
2019-05-26 17:24:05 GMT 47.470779 -1.091148 4,350 39 237 -1280
2019-05-26 17:23:54 GMT 47.461681 -1.102224 4,575 39 237 -1216
2019-05-26 17:23:43 GMT 47.452789 -1.113121 4,775 40 238 -1280
2019-05-26 17:23:39 GMT 47.449673 -1.117014 4,850 40 238 -1152
2019-05-26 17:23:32 GMT 47.443619 -1.124690 5,000 40 239 -960
2019-05-26 17:23:25 GMT 47.438324 -1.131386 5,325 40 239 -960
2019-05-26 17:23:21 GMT 47.434124 -1.136592 5,175 40 241 -1088
2019-05-26 17:23:16 GMT 47.431137 -1.140312 5,650 40 241 -1216
2019-05-26 17:23:12 GMT 47.427887 -1.144363 5,325 40 244 -1088
2019-05-26 17:23:08 GMT 47.423080 -1.150337 5,450 40 241 -1152
2019-05-26 17:23:05 GMT 47.421459 -1.152367 5,475 40 242 -1088
2019-05-26 17:22:58 GMT 47.414062 -1.161598 5,650 40 244 -1152
2019-05-26 17:22:54 GMT 47.412094 -1.164070 5,675 40 244 -1152
2019-05-26 17:22:47 GMT 47.404701 -1.173072 6,300 39 244 -1216
2019-05-26 17:22:44 GMT 47.402607 -1.175608 5,900 39 244 -1216
2019-05-26 17:22:34 GMT 47.395065 -1.184944 6,075 44 247 -1344
2019-05-26 17:22:30 GMT 47.391907 -1.189819 6,175 60 252 -1280
2019-05-26 17:22:24 GMT 47.387741 -1.199226 6,375 66 255 -1344
2019-05-26 17:22:16 GMT 47.385010 -1.211243 6,500 79 257 -1600
2019-05-26 17:22:13 GMT 47.384499 -1.217158 6,600 87 258 -1408
2019-05-26 17:22:02 GMT 47.386047 -1.236580 6,800 111 262 -1664
2019-05-26 17:21:51 GMT 47.392410 -1.254021 6,975 126 262 0
2019-05-26 17:21:48 GMT 47.399963 -1.264526 6,975 138 262 0
2019-05-26 17:21:42 GMT 47.399963 -1.264526 7,000 285 235 0
2019-05-26 17:21:39 GMT 47.403584 -1.267583 6,975 156 262 0
2019-05-26 17:21:31 GMT 47.412289 -1.271738 6,975 169 259 0
2019-05-26 17:21:20 GMT 47.424953 -1.271315 6,975 194 253 0
2019-05-26 17:21:16 GMT 47.430725 -1.268639 6,975 202 251 0
2019-05-26 17:21:07 GMT 47.439289 -1.261456 6,975 237 242 0
2019-05-26 17:20:59 GMT 47.445328 -1.252304 7,000 241 242 -64
2019-05-26 17:20:55 GMT 47.447578 -1.247089 7,000 243 241 -64
2019-05-26 17:20:48 GMT 47.450325 -1.236455 7,000 262 237 0
2019-05-26 17:20:45 GMT 47.450867 -1.231499 7,000 273 236 0
2019-05-26 17:20:38 GMT 47.451115 -1.220046 7,000 272 236 0
2019-05-26 17:20:34 GMT 47.451004 -1.214813 6,975 275 235 0
2019-05-26 17:20:31 GMT 47.450592 -1.208015 6,975 302 234 0
2019-05-26 17:20:27 GMT 47.450089 -1.202728 6,975 281 235 0
2019-05-26 17:20:24 GMT 47.449394 -1.197439 7,000 285 235 0
2019-05-26 17:20:21 GMT 47.448647 -1.193143 6,975 287 235 0
2019-05-26 17:20:14 GMT 47.445480 -1.181242 6,975 297 234 0
2019-05-26 17:20:11 GMT 47.444550 -1.178490 6,975 302 234 0
2019-05-26 17:20:02 GMT 47.439339 -1.166171 6,975 304 234 0
2019-05-26 17:19:59 GMT 47.438049 -1.163109 6,975 302 234 0
2019-05-26 17:19:51 GMT 47.432648 -1.149582 6,975 298 234 0
2019-05-26 17:19:44 GMT 47.430214 -1.141240 7,000 287 235 0
2019-05-26 17:19:39 GMT 47.429005 -1.133775 7,000 280 236 0
2019-05-26 17:19:32 GMT 47.428665 -1.123009 6,975 267 238 0
2019-05-26 17:19:29 GMT 47.429050 -1.117436 6,975 260 240 0
2019-05-26 17:19:22 GMT 47.431004 -1.106943 6,975 246 243 0
2019-05-26 17:19:19 GMT 47.433746 -1.098770 6,975 240 245 0
2019-05-26 17:19:12 GMT 47.437134 -1.091629 6,975 228 248 0
2019-05-26 17:19:08 GMT 47.441345 -1.085312 7,000 217 250 0
2019-05-26 17:19:02 GMT 47.446411 -1.079618 7,000 208 252 0
2019-05-26 17:18:59 GMT 47.448212 -1.077965 7,000 207 253 0
2019-05-26 17:18:48 GMT 47.459747 -1.070274 7,000 199 253 0
2019-05-26 17:18:45 GMT 47.464279 -1.068352 7,000 193 254 0
2019-05-26 17:18:38 GMT 47.471191 -1.066498 7,000 187 254 0
2019-05-26 17:18:34 GMT 47.475677 -1.065880 7,000 184 254 0
2019-05-26 17:18:30 GMT 47.481373 -1.065744 7,000 175 254 0
2019-05-26 17:18:24 GMT 47.489777 -1.066841 7,000 171 254 0
2019-05-26 17:18:18 GMT 47.495201 -1.068350 7,000 164 255 0
2019-05-26 17:18:14 GMT 47.501530 -1.071237 7,000 159 255 0
2019-05-26 17:18:09 GMT 47.505753 -1.073982 7,000 152 255 0
2019-05-26 17:18:02 GMT 47.513031 -1.080574 7,000 141 256 0
2019-05-26 17:17:57 GMT 47.516846 -1.085322 7,000 135 256 0
2019-05-26 17:17:52 GMT 47.522232 -1.094444 7,000 124 255 0
2019-05-26 17:17:46 GMT 47.524670 -1.100182 6,975 58 252 -64
2019-05-26 17:17:43 GMT 47.528111 -1.112295 6,975 106 253 0
2019-05-26 17:17:35 GMT 47.528915 -1.117516 6,975 98 253 0
2019-05-26 17:17:31 GMT 47.529461 -1.124620 6,975 91 254 0
2019-05-26 17:17:28 GMT 47.529419 -1.131592 6,975 88 254 0
2019-05-26 17:17:24 GMT 47.528996 -1.137015 6,975 82 254 0
2019-05-26 17:17:19 GMT 47.527359 -1.147247 6,975 58 252 -64
2019-05-26 17:17:14 GMT 47.523922 -1.157649 6,975 58 252 -64
2019-05-26 17:17:11 GMT 47.523922 -1.157649 6,975 54 250 0
2019-05-26 17:17:08 GMT 47.520538 -1.163933 6,975 41 248 -128
2019-05-26 17:17:04 GMT 47.518337 -1.167157 6,975 41 248 -128
2019-05-26 17:17:01 GMT 47.515640 -1.170593 7,000 39 247 -384
2019-05-26 17:16:56 GMT 47.511337 -1.175812 7,075 39 246 -1088
2019-05-26 17:16:49 GMT 47.504883 -1.183708 7,175 39 246 -1088
2019-05-26 17:16:45 GMT 47.501438 -1.187862 7,225 39 247 -960
2019-05-26 17:16:41 GMT 47.498783 -1.191101 7,275 39 251 -704
2019-05-26 17:16:38 GMT 47.495434 -1.195186 7,325 39 248 -704
2019-05-26 17:16:33 GMT 47.490875 -1.200668 7,375 39 250 -704
2019-05-26 17:16:28 GMT 47.486984 -1.205406 7,450 39 252 -640
2019-05-26 17:16:24 GMT 47.482166 -1.211384 7,475 39 254 -448
2019-05-26 17:16:18 GMT 47.477921 -1.216667 7,525 40 259 -640
2019-05-26 17:16:15 GMT 47.474716 -1.220680 7,575 40 260 -896
2019-05-26 17:16:08 GMT 47.468666 -1.228356 7,650 42 263 -576
2019-05-26 17:16:01 GMT 47.461681 -1.237441 7,700 39 267 -256
2019-05-26 17:15:58 GMT 47.458702 -1.240892 7,725 35 269 -384
2019-05-26 17:15:55 GMT 47.447811 -1.248427 7,800 18 269 -1024
2019-05-26 17:15:48 GMT 47.447811 -1.248427 7,825 13 268 -1280
2019-05-26 17:15:45 GMT 47.442966 -1.249765 7,925 3 265 -1408
2019-05-26 17:15:37 GMT 47.433380 -1.249283 8,100 344 261 -1472
2019-05-26 17:15:34 GMT 47.430817 -1.248427 8,150 344 261 -1472
2019-05-26 17:15:30 GMT 47.426285 -1.245987 8,325 327 259 -1280
2019-05-26 17:15:27 GMT 47.423042 -1.243427 8,325 322 260 -1088
2019-05-26 17:15:24 GMT 47.420158 -1.240610 8,400 325 259 -1088
2019-05-26 17:15:19 GMT 47.413872 -1.233567 8,525 322 260 -1088
2019-05-26 17:15:13 GMT 47.409622 -1.228615 8,600 322 261 -1344
2019-05-26 17:15:09 GMT 47.405960 -1.224271 8,825 322 261 -1472
2019-05-26 17:15:04 GMT 47.400558 -1.217903 8,825 322 261 -1408
2019-05-26 17:14:54 GMT 47.391495 -1.207191 9,150 322 261 -1088
2019-05-26 17:14:51 GMT 47.389252 -1.204514 9,075 322 263 -1216
2019-05-26 17:14:46 GMT 47.383530 -1.197784 9,200 322 264 -1280
2019-05-26 17:14:43 GMT 47.381195 -1.195107 9,250 322 264 -1344
2019-05-26 17:14:35 GMT 47.373917 -1.186523 9,425 322 265 -1472
2019-05-26 17:14:32 GMT 47.370667 -1.182747 9,475 322 265 -1408
2019-05-26 17:14:29 GMT 47.361641 -1.172298 9,900 322 267 -1472
2019-05-26 17:14:23 GMT 47.361641 -1.172298 9,700 322 266 -1344
2019-05-26 17:14:13 GMT 47.352936 -1.162227 9,925 322 267 -1472
2019-05-26 17:14:10 GMT 47.349445 -1.158142 10,000 322 267 -1408
2019-05-26 17:14:03 GMT 47.342278 -1.149832 10,200 322 267 -1408
2019-05-26 17:14:00 GMT 47.339390 -1.146522 10,325 322 267 -1472
2019-05-26 17:13:50 GMT 47.329659 -1.135254 10,575 322 267 -1408
2019-05-26 17:13:40 GMT 47.320351 -1.124408 10,750 322 268 -1344
2019-05-26 17:13:37 GMT 47.317291 -1.120880 10,750 322 268 -1344
2019-05-26 17:13:29 GMT 47.308990 -1.111309 10,950 322 269 -1216
2019-05-26 17:13:21 GMT 47.297958 -1.098422 11,125 322 271 -1280
2019-05-26 17:13:18 GMT 47.297958 -1.098422 11,200 322 271 -1344
2019-05-26 17:13:09 GMT 47.290276 -1.089478 11,375 322 273 -1472
2019-05-26 17:13:06 GMT 47.286694 -1.085322 11,475 322 273 -1472
2019-05-26 17:12:59 GMT 47.280037 -1.077505 11,625 322 273 -1472
2019-05-26 17:12:56 GMT 47.276031 -1.072787 11,725 322 273 -1408
2019-05-26 17:12:49 GMT 47.261993 -1.056404 12,500 322 276 -1536
2019-05-26 17:12:42 GMT 47.261993 -1.056404 12,050 322 275 -1280
2019-05-26 17:12:38 GMT 47.259926 -1.053983 12,075 322 275 -1280
2019-05-26 17:12:33 GMT 47.254944 -1.048138 12,225 322 276 -1408
2019-05-26 17:12:30 GMT 47.251236 -1.043839 12,300 322 276 -1536
2019-05-26 17:12:27 GMT 47.248196 -1.040250 12,375 322 276 -1600
2019-05-26 17:12:22 GMT 47.242218 -1.033333 12,525 322 277 -1472
2019-05-26 17:12:17 GMT 47.238884 -1.029475 12,600 322 277 -1344
2019-05-26 17:12:13 GMT 47.234043 -1.023841 12,725 322 278 -1344
2019-05-26 17:12:10 GMT 47.230598 -1.019897 12,800 322 278 -1408
2019-05-26 17:12:07 GMT 47.228073 -1.016991 12,850 322 279 -1472
2019-05-26 17:12:01 GMT 47.222218 -1.010320 13,050 322 279 -1536
2019-05-26 17:11:58 GMT 47.219471 -1.007151 13,050 322 279 -1600
2019-05-26 17:11:51 GMT 47.212189 -0.998795 13,325 322 278 -1600
2019-05-26 17:11:48 GMT 47.209167 -0.995224 13,925 322 280 -1344
2019-05-26 17:11:45 GMT 47.206100 -0.991722 13,425 322 278 -1536
2019-05-26 17:11:41 GMT 47.199314 -0.983910 13,600 322 279 -1600
2019-05-26 17:11:31 GMT 47.192005 -0.975389 13,750 322 279 -1536
2019-05-26 17:11:28 GMT 47.188934 -0.971878 13,850 322 279 -1344
2019-05-26 17:11:24 GMT 47.184174 -0.966385 14,025 322 281 -1408
2019-05-26 17:11:17 GMT 47.177341 -0.958487 14,200 322 288 -1344
2019-05-26 17:11:12 GMT 47.171848 -0.952148 14,225 322 282 -1536
2019-05-26 17:11:07 GMT 47.166412 -0.945854 14,375 322 282 -1536
2019-05-26 17:11:02 GMT 47.162399 -0.941233 14,475 322 282 -1536
2019-05-26 17:10:59 GMT 47.157696 -0.935810 14,575 322 282 -1472
2019-05-26 17:10:55 GMT 47.154625 -0.932218 14,650 322 282 -1408
2019-05-26 17:10:51 GMT 47.150620 -0.927589 14,925 322 282 -1536
2019-05-26 17:10:47 GMT 47.146385 -0.922711 14,850 322 283 -1600
2019-05-26 17:10:43 GMT 47.142975 -0.918800 14,950 322 283 -1600
2019-05-26 17:10:40 GMT 47.139725 -0.914955 15,125 322 283 -1408
2019-05-26 17:10:36 GMT 47.135193 -0.909737 15,125 322 284 -1216
2019-05-26 17:10:33 GMT 47.130974 -0.904823 15,225 322 284 -1216
2019-05-26 17:10:30 GMT 47.129013 -0.902527 15,250 322 286 -1344
2019-05-26 17:10:25 GMT 47.123062 -0.895667 15,375 322 286 -1472
2019-05-26 17:10:22 GMT 47.121014 -0.893203 15,425 322 286 -1472
2019-05-26 17:10:17 GMT 47.115280 -0.886597 15,575 322 287 -1536
2019-05-26 17:10:12 GMT 47.109329 -0.879681 15,700 322 288 -1216
2019-05-26 17:10:06 GMT 47.104019 -0.873624 15,800 322 290 -1216
2019-05-26 17:10:03 GMT 47.100540 -0.869637 15,875 322 290 -1408
2019-05-26 17:10:00 GMT 47.097878 -0.866582 16,050 322 291 -1472
2019-05-26 17:09:57 GMT 47.093628 -0.861671 16,100 322 291 -1536
2019-05-26 17:09:54 GMT 47.090149 -0.857689 16,100 322 291 -1536
2019-05-26 17:09:49 GMT 47.085938 -0.852814 16,225 322 291 -1984
2019-05-26 17:09:46 GMT 47.082550 -0.848831 16,375 322 291 -1920
2019-05-26 17:09:43 GMT 47.079674 -0.845525 16,400 322 291 -1984
2019-05-26 17:09:39 GMT 47.074181 -0.839186 16,550 322 291 -1984
2019-05-26 17:09:36 GMT 47.072041 -0.836722 16,725 322 289 -1920
2019-05-26 17:09:31 GMT 47.066666 -0.830498 16,750 322 289 -1856
2019-05-26 17:09:28 GMT 47.063614 -0.826932 16,875 322 289 -1600
2019-05-26 17:09:25 GMT 47.061287 -0.824256 16,925 322 290 -1536
2019-05-26 17:09:22 GMT 47.056183 -0.818275 17,050 322 290 -1600
2019-05-26 17:09:17 GMT 47.051697 -0.813059 17,175 322 291 -1472
2019-05-26 17:09:14 GMT 47.049137 -0.810101 17,200 322 291 -1472
2019-05-26 17:09:10 GMT 47.044296 -0.804467 17,325 322 291 -1536
2019-05-26 17:09:04 GMT 47.034485 -0.793076 18,325 322 291 -1664
2019-05-26 17:09:00 GMT 47.034485 -0.793076 17,675 322 291 -1664
2019-05-26 17:08:54 GMT 47.027817 -0.785311 17,750 322 292 -1600
2019-05-26 17:08:49 GMT 47.022446 -0.778999 17,875 322 293 -1536
2019-05-26 17:08:46 GMT 47.017548 -0.773300 18,000 322 294 -1344
2019-05-26 17:08:43 GMT 47.016907 -0.772545 18,325 322 294 -1344
2019-05-26 17:08:39 GMT 47.012009 -0.766914 18,100 322 294 -1344
2019-05-26 17:08:32 GMT 47.004501 -0.758263 18,250 323 296 -1344
2019-05-26 17:08:27 GMT 46.999512 -0.752704 18,425 323 296 -1408
2019-05-26 17:08:24 GMT 46.994762 -0.747493 18,450 324 298 -1408
2019-05-26 17:08:21 GMT 46.988106 -0.740309 18,575 324 298 -1344
2019-05-26 17:08:17 GMT 46.988106 -0.740309 18,600 325 299 -1344
2019-05-26 17:08:11 GMT 46.981262 -0.733337 18,800 327 301 -1472
2019-05-26 17:08:07 GMT 46.975956 -0.728196 18,850 328 301 -1536
2019-05-26 17:08:04 GMT 46.972885 -0.725379 19,150 330 301 -1664
2019-05-26 17:08:00 GMT 46.968246 -0.721252 19,050 332 302 -1600
2019-05-26 17:07:56 GMT 46.962845 -0.716721 19,150 332 301 -1600
2019-05-26 17:07:53 GMT 46.959961 -0.714386 19,225 332 302 -1600
2019-05-26 17:07:49 GMT 46.955292 -0.710747 19,325 333 302 -1728
2019-05-26 17:07:45 GMT 46.949982 -0.706646 19,450 333 301 -1984
2019-05-26 17:07:41 GMT 46.944626 -0.702576 19,650 331 302 -1280
2019-05-26 17:07:38 GMT 46.941696 -0.700241 19,650 331 302 -1280
2019-05-26 17:07:34 GMT 46.934967 -0.694405 19,725 327 306 0
2019-05-26 17:07:31 GMT 46.932056 -0.691434 19,725 322 309 -384
2019-05-26 17:07:27 GMT 46.928284 -0.686783 19,750 315 311 -384
2019-05-26 17:07:23 GMT 46.924530 -0.680740 19,775 310 315 -256
2019-05-26 17:07:19 GMT 46.919312 -0.670921 19,800 306 323 -128
2019-05-26 17:07:16 GMT 46.918510 -0.669321 19,800 306 323 -128
2019-05-26 17:07:12 GMT 46.915020 -0.662208 19,800 306 327 -192
2019-05-26 17:07:09 GMT 46.911434 -0.655025 19,825 306 330 -256
2019-05-26 17:07:05 GMT 46.908550 -0.649250 19,825 306 333 -128
2019-05-26 17:07:02 GMT 46.906311 -0.644691 19,825 306 335 -64
2019-05-26 17:06:58 GMT 46.902775 -0.637559 19,925 306 341 -192
2019-05-26 17:06:54 GMT 46.898819 -0.629601 19,900 306 346 -768
2019-05-26 17:06:51 GMT 46.895554 -0.622993 19,900 306 346 -768
2019-05-26 17:06:48 GMT 46.892628 -0.617136 19,975 306 350 -448
2019-05-26 17:06:41 GMT 46.885895 -0.603493 20,000 306 351 0
2019-05-26 17:06:37 GMT 46.882946 -0.597558 20,000 306 351 0
2019-05-26 17:06:32 GMT 46.878021 -0.587631 19,975 306 351 0
2019-05-26 17:06:29 GMT 46.875217 -0.581853 19,975 306 351 0
2019-05-26 17:06:26 GMT 46.872005 -0.575444 20,000 306 351 0
2019-05-26 17:06:22 GMT 46.867859 -0.567032 20,000 306 351 0
2019-05-26 17:06:19 GMT 46.865860 -0.562981 20,000 306 351 0
2019-05-26 17:06:16 GMT 46.862041 -0.555290 19,975 286 357 0
2019-05-26 17:06:11 GMT 46.857605 -0.546235 19,975 306 351 0
2019-05-26 17:06:06 GMT 46.851940 -0.534416 19,975 305 351 0
2019-05-26 17:06:01 GMT 46.848030 -0.525627 20,000 297 353 -64
2019-05-26 17:05:57 GMT 46.845520 -0.518903 20,000 297 353 -64
2019-05-26 17:05:54 GMT 46.843609 -0.512993 20,000 289 355 0
2019-05-26 17:05:48 GMT 46.840256 -0.498739 20,000 286 356 0
2019-05-26 17:05:44 GMT 46.838470 -0.489495 20,000 286 357 0
2019-05-26 17:05:40 GMT 46.836113 -0.477219 20,000 286 357 0
2019-05-26 17:05:34 GMT 46.833553 -0.463829 20,000 286 357 0
2019-05-26 17:05:31 GMT 46.832203 -0.456894 20,000 286 357 0
2019-05-26 17:05:27 GMT 46.830807 -0.449615 20,000 286 357 0
2019-05-26 17:05:23 GMT 46.829224 -0.441396 20,000 286 357 0
2019-05-26 17:05:20 GMT 46.827850 -0.434429 20,000 286 357 0
2019-05-26 17:05:17 GMT 46.826248 -0.426055 20,000 286 357 0
2019-05-26 17:05:14 GMT 46.825314 -0.421188 19,975 286 357 0
2019-05-26 17:05:10 GMT 46.823318 -0.410781 19,975 286 357 0
2019-05-26 17:05:06 GMT 46.821125 -0.399422 19,975 286 358 0
2019-05-26 17:05:03 GMT 46.820240 -0.394821 19,975 286 358 0
2019-05-26 17:04:59 GMT 46.818516 -0.385963 19,975 286 358 0
2019-05-26 17:04:55 GMT 46.815819 -0.371956 19,975 286 359 0
2019-05-26 17:04:52 GMT 46.815117 -0.368248 19,975 286 359 0
2019-05-26 17:04:49 GMT 46.813797 -0.361477 19,975 286 360 0
2019-05-26 17:04:43 GMT 46.811069 -0.347305 19,975 286 360 0
2019-05-26 17:04:40 GMT 46.809254 -0.337967 19,975 286 360 -64
2019-05-26 17:04:34 GMT 46.806927 -0.325813 19,975 286 360 -64
2019-05-26 17:04:31 GMT 46.805923 -0.320814 20,025 286 361 -448
2019-05-26 17:04:27 GMT 46.803726 -0.309359 20,000 286 362 -1152
2019-05-26 17:04:21 GMT 46.801117 -0.296028 20,250 286 365 -2048
2019-05-26 17:04:18 GMT 46.799988 -0.290176 20,150 286 363 -1728
2019-05-26 17:04:13 GMT 46.797428 -0.276924 20,325 286 364 -2112
2019-05-26 17:04:09 GMT 46.791702 -0.247467 20,675 286 369 -1920
2019-05-26 17:04:02 GMT 46.789982 -0.238609 20,850 286 369 -1920
2019-05-26 17:03:57 GMT 46.789982 -0.238609 20,850 286 369 -1920
2019-05-26 17:03:50 GMT 46.786072 -0.218765 21,100 286 371 -2112
2019-05-26 17:03:46 GMT 46.785137 -0.213959 21,175 287 372 -2240
2019-05-26 17:03:40 GMT 46.781601 -0.196106 21,500 286 374 -2240
2019-05-26 17:03:35 GMT 46.780018 -0.187866 21,525 286 374 -2048
2019-05-26 17:03:31 GMT 46.777737 -0.176193 21,750 286 374 -2560
2019-05-26 17:03:28 GMT 46.776352 -0.169149 21,875 286 374 -2496
2019-05-26 17:03:25 GMT 46.774933 -0.161914 21,925 286 374 -2432
2019-05-26 17:03:20 GMT 46.772507 -0.149320 22,425 286 373 -2304
2019-05-26 17:03:17 GMT 46.771126 -0.142342 22,425 286 373 -2304
2019-05-26 17:03:14 GMT 46.769730 -0.135063 22,450 286 373 -2304
2019-05-26 17:03:07 GMT 46.766418 -0.117835 22,700 286 374 -2368
2019-05-26 17:03:04 GMT 46.765045 -0.110533 22,825 286 375 -2304
2019-05-26 17:02:58 GMT 46.762665 -0.097939 23,400 286 376 -2176
2019-05-26 17:02:54 GMT 46.760330 -0.085680 23,200 286 375 -2240
2019-05-26 17:02:46 GMT 46.756229 -0.063995 23,525 286 377 -1920
2019-05-26 17:02:43 GMT 46.755341 -0.059286 23,575 286 377 -1920
2019-05-26 17:02:38 GMT 46.753006 -0.047027 23,900 286 380 -1792
2019-05-26 17:02:35 GMT 46.751999 -0.041601 23,800 286 379 -1920
2019-05-26 17:02:32 GMT 46.750412 -0.033508 23,900 286 381 -1728
2019-05-26 17:02:25 GMT 46.744869 -0.004669 24,200 286 386 -1536
2019-05-26 17:02:20 GMT 46.744869 -0.004669 24,200 286 386 -1600
2019-05-26 17:02:16 GMT 46.742661 0.006632 24,525 323 397 -1024
2019-05-26 17:02:12 GMT 46.740356 0.018471 24,500 287 391 -1344
2019-05-26 17:02:09 GMT 46.739227 0.023781 24,500 292 395 -1664
2019-05-26 17:02:05 GMT 46.736958 0.034126 24,575 292 395 -1664
2019-05-26 17:02:00 GMT 46.728470 0.059487 25,075 302 394 -2496
2019-05-26 17:01:54 GMT 46.725040 0.066673 25,450 310 393 -2816
2019-05-26 17:01:48 GMT 46.716293 0.081192 25,225 317 394 -1024
2019-05-26 17:01:44 GMT 46.716293 0.081192 25,400 347 415 -768
2019-05-26 17:01:38 GMT 46.708694 0.091106 25,475 325 399 -1024
2019-05-26 17:01:35 GMT 46.703205 0.096954 25,525 327 400 -960
2019-05-26 17:01:32 GMT 46.699951 0.099949 25,575 329 401 -960
2019-05-26 17:01:27 GMT 46.690311 0.107391 25,650 336 406 -896
2019-05-26 17:01:22 GMT 46.681961 0.112275 25,800 348 417 -768
2019-05-26 17:01:17 GMT 46.672806 0.116093 25,800 348 417 -768
2019-05-26 17:01:14 GMT 46.667908 0.117567 25,825 349 417 -768
2019-05-26 17:01:11 GMT 46.662140 0.118773 25,875 356 424 -1088
2019-05-26 17:01:07 GMT 46.645248 0.119443 26,000 5 431 -2560
2019-05-26 17:01:00 GMT 46.640266 0.118790 26,475 25 431 -4352
2019-05-26 17:00:56 GMT 46.629868 0.116093 26,500 14 432 -4288
2019-05-26 17:00:52 GMT 46.623882 0.113708 26,725 18 431 -4352
2019-05-26 17:00:48 GMT 46.617504 0.110550 26,900 25 431 -4352
2019-05-26 17:00:43 GMT 46.607635 0.104233 27,200 25 431 -4352
2019-05-26 17:00:39 GMT 46.600159 0.098207 27,950 33 431 -3840
2019-05-26 17:00:35 GMT 46.593018 0.091255 28,000 38 433 -3328
2019-05-26 17:00:31 GMT 46.587524 0.085144 28,125 40 433 -3008
2019-05-26 17:00:28 GMT 46.583706 0.080338 28,400 43 434 -2496
2019-05-26 17:00:23 GMT 46.572189 0.062769 28,525 54 442 -320
2019-05-26 17:00:20 GMT 46.567600 0.054176 28,575 54 443 -128
2019-05-26 17:00:12 GMT 46.562439 0.043007 28,600 58 446 0
2019-05-26 17:00:09 GMT 46.559502 0.035500 28,600 61 449 -192
2019-05-26 17:00:05 GMT 46.556168 0.025657 28,650 65 453 -448
2019-05-26 17:00:02 GMT 46.553513 0.016346 28,625 96 474 1664
2019-05-26 16:59:59 GMT 46.551308 0.007072 28,650 72 458 448
2019-05-26 16:59:56 GMT 46.549026 -0.004395 28,600 80 462 2048
2019-05-26 16:59:52 GMT 46.546978 -0.018883 28,475 81 463 2048
2019-05-26 16:59:48 GMT 46.546280 -0.025322 28,450 81 463 2048
2019-05-26 16:59:44 GMT 46.545547 -0.036509 28,250 87 468 2368
2019-05-26 16:59:41 GMT 46.545303 -0.046829 28,025 93 473 2112
2019-05-26 16:59:37 GMT 46.545547 -0.059152 28,000 94 473 2112
2019-05-26 16:59:33 GMT 46.546280 -0.071480 27,850 96 475 2304
2019-05-26 16:59:30 GMT 46.547070 -0.081024 27,725 97 475 2368
2019-05-26 16:59:26 GMT 46.548157 -0.093786 27,575 96 476 2048
2019-05-26 16:59:19 GMT 46.549957 -0.115219 27,375 96 476 1664
2019-05-26 16:59:15 GMT 46.551075 -0.128540 27,275 96 476 1472
2019-05-26 16:59:10 GMT 46.552608 -0.146873 27,125 96 475 1664
2019-05-26 16:59:04 GMT 46.554016 -0.163656 26,975 96 475 1664
2019-05-26 16:59:00 GMT 46.555298 -0.179399 26,825 96 474 1664
2019-05-26 16:58:53 GMT 46.556801 -0.197411 26,575 96 474 1728
2019-05-26 16:58:49 GMT 46.558056 -0.213203 26,450 96 473 1600
2019-05-26 16:58:42 GMT 46.559830 -0.235536 26,250 96 473 1600
2019-05-26 16:58:38 GMT 46.560757 -0.247192 25,975 102 471 1664
2019-05-26 16:58:31 GMT 46.563446 -0.279816 26,000 96 472 1984
2019-05-26 16:58:28 GMT 46.563446 -0.279816 25,925 98 473 1792
2019-05-26 16:58:21 GMT 46.566238 -0.301387 25,725 103 474 1600
2019-05-26 16:58:16 GMT 46.568344 -0.314383 25,575 102 468 1280
2019-05-26 16:58:12 GMT 46.570267 -0.326709 25,400 102 470 1472
2019-05-26 16:58:09 GMT 46.571651 -0.335701 25,375 102 471 1984
2019-05-26 16:58:06 GMT 46.572968 -0.344663 25,100 102 471 1664
2019-05-26 16:58:01 GMT 46.575233 -0.359871 25,150 102 471 1664
2019-05-26 16:57:58 GMT 46.576859 -0.370588 25,000 102 469 1920
2019-05-26 16:57:55 GMT 46.578415 -0.381105 24,950 102 468 1280
2019-05-26 16:57:51 GMT 46.582855 -0.410581 24,800 102 467 1216
2019-05-26 16:57:46 GMT 46.582855 -0.410581 24,675 102 468 1280
2019-05-26 16:57:38 GMT 46.586426 -0.434496 24,500 102 465 1600
2019-05-26 16:57:34 GMT 46.587753 -0.443606 24,425 102 464 1600
2019-05-26 16:57:29 GMT 46.590271 -0.460488 24,225 102 462 1664
2019-05-26 16:57:24 GMT 46.592377 -0.474623 23,800 102 460 1856
2019-05-26 16:57:19 GMT 46.594833 -0.491226 23,650 102 459 1792
2019-05-26 16:57:14 GMT 46.597301 -0.508118 23,800 102 459 1792
2019-05-26 16:57:09 GMT 46.599163 -0.520821 23,675 101 458 1856
2019-05-26 16:57:03 GMT 46.601669 -0.537861 23,475 109 456 2240
2019-05-26 16:56:57 GMT 46.604279 -0.555747 23,300 101 456 1984
2019-05-26 16:56:52 GMT 46.606522 -0.570284 23,125 109 456 2240
2019-05-26 16:56:47 GMT 46.609222 -0.585692 22,950 105 456 2112
2019-05-26 16:56:44 GMT 46.610825 -0.593932 22,775 106 456 1984
2019-05-26 16:56:41 GMT 46.612518 -0.602171 22,550 109 456 2240
2019-05-26 16:56:36 GMT 46.616154 -0.618187 22,575 109 455 2176
2019-05-26 16:56:33 GMT 46.618790 -0.628833 22,450 110 456 2368
2019-05-26 16:56:28 GMT 46.622253 -0.641808 22,275 112 456 2176
2019-05-26 16:56:25 GMT 46.624237 -0.648729 22,175 114 456 2048
2019-05-26 16:56:22 GMT 46.627232 -0.658493 21,675 114 451 2048
2019-05-26 16:56:19 GMT 46.629517 -0.665771 21,975 114 455 2304
2019-05-26 16:56:15 GMT 46.633484 -0.678272 21,800 114 455 2560
2019-05-26 16:56:10 GMT 46.638107 -0.692943 21,675 114 451 2048
2019-05-26 16:56:05 GMT 46.646179 -0.718506 21,300 114 454 2112
2019-05-26 16:56:02 GMT 46.646179 -0.718506 21,250 114 453 2048
2019-05-26 16:55:56 GMT 46.649689 -0.729586 21,125 114 451 1984
2019-05-26 16:55:53 GMT 46.652416 -0.738350 21,000 114 450 2304
2019-05-26 16:55:48 GMT 46.656830 -0.752363 20,825 114 449 2304
2019-05-26 16:55:45 GMT 46.658981 -0.759224 20,725 114 449 2176
2019-05-26 16:55:40 GMT 46.664246 -0.775943 20,525 114 447 1984
2019-05-26 16:55:36 GMT 46.666710 -0.783875 20,450 114 446 2048
2019-05-26 16:55:33 GMT 46.673264 -0.804749 20,300 114 444 2048
2019-05-26 16:55:30 GMT 46.673264 -0.804749 18,950 114 436 2368
2019-05-26 16:55:27 GMT 46.675323 -0.811272 20,100 114 443 2240
2019-05-26 16:55:24 GMT 46.677567 -0.818347 20,000 114 442 2304
2019-05-26 16:55:21 GMT 46.679764 -0.825381 19,900 114 441 2176
2019-05-26 16:55:16 GMT 46.683887 -0.838600 19,725 114 440 2048
2019-05-26 16:55:12 GMT 46.690384 -0.859278 19,450 114 438 2304
2019-05-26 16:55:05 GMT 46.693405 -0.868925 19,250 114 436 2368
2019-05-26 16:55:01 GMT 46.700089 -0.890362 18,850 114 434 2368
2019-05-26 16:54:58 GMT 46.700089 -0.890362 18,950 114 434 2368
2019-05-26 16:54:55 GMT 46.701298 -0.894218 18,875 114 434 2368
2019-05-26 16:54:49 GMT 46.706604 -0.911179 18,700 114 432 2432
2019-05-26 16:54:45 GMT 46.710480 -0.923588 18,525 114 431 2240
2019-05-26 16:54:38 GMT 46.715683 -0.940224 18,100 114 426 2240
2019-05-26 16:54:35 GMT 46.718216 -0.948308 18,100 114 426 2240
2019-05-26 16:54:32 GMT 46.720432 -0.955399 18,100 114 426 2240
2019-05-26 16:54:27 GMT 46.724342 -0.967896 17,900 114 424 2432
2019-05-26 16:54:24 GMT 46.732628 -0.994331 17,500 114 420 3008
2019-05-26 16:54:17 GMT 46.732628 -0.994331 17,375 114 422 2624
2019-05-26 16:54:14 GMT 46.735840 -1.004700 17,275 114 421 2496
2019-05-26 16:54:04 GMT 46.743027 -1.027624 16,575 114 420 3200
2019-05-26 16:54:00 GMT 46.750084 -1.050156 16,500 114 420 3008
2019-05-26 16:53:56 GMT 46.750084 -1.050156 16,350 114 420 3008
2019-05-26 16:53:52 GMT 46.756462 -1.070618 15,800 114 419 2304
2019-05-26 16:53:44 GMT 46.759300 -1.079887 15,600 114 417 2752
2019-05-26 16:53:40 GMT 46.762981 -1.091629 15,800 114 414 2816
2019-05-26 16:53:34 GMT 46.767334 -1.105667 15,475 114 414 2816
2019-05-26 16:53:29 GMT 46.770996 -1.117390 15,300 114 414 2560
2019-05-26 16:53:22 GMT 46.776573 -1.135368 14,975 114 411 2496
2019-05-26 16:53:19 GMT 46.779785 -1.145660 14,850 114 410 2432
2019-05-26 16:53:12 GMT 46.784206 -1.160019 14,600 114 408 2944
2019-05-26 16:53:08 GMT 46.788940 -1.175202 14,275 114 406 2560
2019-05-26 16:53:03 GMT 46.791412 -1.183241 14,075 114 405 2304
2019-05-26 16:52:59 GMT 46.796036 -1.198113 13,900 114 402 3008
2019-05-26 16:52:51 GMT 46.800873 -1.213715 13,600 114 402 3072
2019-05-26 16:52:48 GMT 46.803154 -1.221130 13,025 114 400 2496
2019-05-26 16:52:38 GMT 46.811069 -1.246674 13,025 114 398 2752
2019-05-26 16:52:33 GMT 46.814896 -1.259207 12,775 114 397 2816
2019-05-26 16:52:27 GMT 46.819061 -1.272873 12,525 113 394 2432
2019-05-26 16:52:22 GMT 46.822586 -1.284530 12,350 113 394 2624
2019-05-26 16:52:18 GMT 46.825455 -1.294052 12,250 113 393 2816
2019-05-26 16:52:15 GMT 46.827969 -1.302429 11,900 113 391 2560
2019-05-26 16:52:12 GMT 46.829922 -1.309021 11,900 113 391 2624
2019-05-26 16:52:06 GMT 46.834854 -1.325981 11,600 112 389 2176
2019-05-26 16:52:01 GMT 46.837322 -1.334702 11,500 112 387 1792
2019-05-26 16:51:58 GMT 46.839294 -1.341739 11,400 112 385 1088
2019-05-26 16:51:55 GMT 46.841812 -1.350849 11,350 111 381 1024
2019-05-26 16:51:52 GMT 46.844074 -1.359146 11,275 111 376 896
2019-05-26 16:51:45 GMT 46.848450 -1.375626 11,175 110 367 896
2019-05-26 16:51:41 GMT 46.850266 -1.382561 11,025 131 345 1152
2019-05-26 16:51:37 GMT 46.852592 -1.391212 11,075 112 360 1216
2019-05-26 16:51:34 GMT 46.854454 -1.397392 11,000 119 354 896
2019-05-26 16:51:31 GMT 46.857201 -1.405014 10,975 121 353 896
2019-05-26 16:51:24 GMT 46.864090 -1.418541 10,825 134 342 1216
2019-05-26 16:51:21 GMT 46.867489 -1.423434 10,775 137 340 1216
2019-05-26 16:51:14 GMT 46.876099 -1.432617 10,675 148 332 960
2019-05-26 16:51:10 GMT 46.881729 -1.436943 10,600 155 324 960
2019-05-26 16:51:03 GMT 46.891045 -1.442942 10,500 156 315 704
2019-05-26 16:51:00 GMT 46.894489 -1.445125 10,450 156 310 1408
2019-05-26 16:50:54 GMT 46.901962 -1.449783 10,275 156 305 2944
2019-05-26 16:50:50 GMT 46.907757 -1.453505 10,050 156 304 3072
2019-05-26 16:50:40 GMT 46.920776 -1.461731 9,550 156 303 2816
2019-05-26 16:50:30 GMT 46.935150 -1.470795 9,025 156 300 3136
2019-05-26 16:50:17 GMT 46.949982 -1.480133 8,450 156 299 2944
2019-05-26 16:50:08 GMT 46.961758 -1.487591 8,000 156 296 3200
2019-05-26 16:49:58 GMT 46.974888 -1.495901 7,450 156 296 2752
2019-05-26 16:49:50 GMT 46.986153 -1.503085 7,025 156 294 2752
2019-05-26 16:49:46 GMT 46.988754 -1.504715 6,925 156 293 2944
2019-05-26 16:49:39 GMT 46.998413 -1.510895 6,575 156 290 2752
2019-05-26 16:49:36 GMT 47.001747 -1.513015 6,450 156 290 2816
2019-05-26 16:49:31 GMT 47.009846 -1.518156 6,125 156 286 2496
2019-05-26 16:49:26 GMT 47.015434 -1.521677 5,925 156 286 2496
2019-05-26 16:49:15 GMT 47.028076 -1.529572 5,500 157 278 2944
2019-05-26 16:49:08 GMT 47.035675 -1.534241 5,150 157 277 3520
2019-05-26 16:49:03 GMT 47.041077 -1.537605 4,875 157 277 3520
2019-05-26 16:48:57 GMT 47.047878 -1.541818 4,575 156 277 2560
2019-05-26 16:48:53 GMT 47.053116 -1.545158 4,400 156 275 2432
2019-05-26 16:48:47 GMT 47.059845 -1.549484 4,150 155 270 2944
2019-05-26 16:48:42 GMT 47.065384 -1.553368 3,900 153 270 3200
2019-05-26 16:48:37 GMT 47.071152 -1.558136 3,575 145 271 3840
2019-05-26 16:48:30 GMT 47.077332 -1.565689 3,225 131 273 1728
2019-05-26 16:48:26 GMT 47.080627 -1.571251 3,100 125 270 1088
2019-05-26 16:48:21 GMT 47.084518 -1.580795 3,000 113 259 1152
2019-05-26 16:48:16 GMT 47.086376 -1.587806 2,900 107 253 1600
2019-05-26 16:48:11 GMT 47.088333 -1.597595 2,725 106 244 1600
2019-05-26 16:48:06 GMT 47.089638 -1.603863 2,600 108 240 1664
2019-05-26 16:47:56 GMT 47.093735 -1.618511 2,375 120 225 832
2019-05-26 16:47:49 GMT 47.098389 -1.627213 2,200 139 214 1280
2019-05-26 16:47:46 GMT 47.100357 -1.629616 2,150 145 211 640
2019-05-26 16:47:36 GMT 47.109055 -1.635315 2,025 169 184 1280
2019-05-26 16:47:27 GMT 47.117249 -1.635933 1,725 185 174 1920
2019-05-26 16:47:24 GMT 47.117889 -1.635796 1,700 189 171 2112

Making use of Plane Finder data

You are free to use the raw flight data, aircraft information and images provided in this report for your own purposes provided the data is correctly attributed to Plane Finder. We ask that you please credit Plane Finder and link to planefinder.net in close proximity to the content.

Optionally one of the following logos (no smaller then 150x24px) can be used and must link to planefinder.net

Embedding the Plane Finder map

You are welcome to embed the Plane Finder playback map on your website to offer visitors a more interactive experience. We suggest using the following HTML code:

<iframe src="//planefinder.net/data/report/TO4678-F-GZHZ-7700-squawk-2019-05-26/map" width="800" height="600" seamless="seamless"></iframe>

Where our data comes from

Plane Finder has a global network of data feeds and antenna radars that receive data broadcast directly from aircraft. The primary technologies used are ADS-B and MLAT. We also show feeds from the FAA and a FLARM glider feed.

Click here to find out more about the Plane Finder network.

How we collect our data